Time;durP1;ratioP1;P1;durP2;ratioP2;P2;SDS_P1;SDS_P2;PMS_P1;PMS_P2;Temp;Humidity;BMP_temperature;BMP_pressure;BME280_temperature;BME280_humidity;BME280_pressure;Samples;Min_cycle;Max_cycle;Signal;HPM_P1;HPM_P2
2023/06/28 00:00:14;;;;;;;16.83;8.27;;;;;;;-142.57;90.25;115900.28;5038259;28;20125;-77
2023/06/28 00:02:42;;;;;;;15.13;8.98;;;;;;;-142.57;89.49;115900.28;5020365;28;20527;-78
2023/06/28 00:05:08;;;;;;;12.18;8.20;;;;;;;-142.57;89.45;115900.28;5040486;28;20073;-80
2023/06/28 00:07:35;;;;;;;14.23;7.93;;;;;;;-142.57;90.32;115900.28;5041107;28;20414;-78
2023/06/28 00:10:00;;;;;;;14.68;8.23;;;;;;;-142.57;90.98;115900.28;5039013;28;20394;-78
2023/06/28 00:12:29;;;;;;;14.00;7.47;;;;;;;-142.57;91.47;115900.28;5019923;28;20033;-77
2023/06/28 00:14:56;;;;;;;15.82;8.18;;;;;;;-142.57;92.13;115900.28;5038433;28;20033;-79
2023/06/28 00:17:27;;;;;;;15.40;9.15;;;;;;;-142.57;93.13;115900.28;5038176;28;20033;-76
2023/06/28 00:19:56;;;;;;;18.42;9.50;;;;;;;-142.57;94.82;115900.28;5036721;28;20111;-78
2023/06/28 00:22:31;;;;;;;15.02;8.85;;;;;;;-142.57;95.10;115900.28;5036595;28;20037;-77
2023/06/28 00:24:58;;;;;;;14.70;9.13;;;;;;;-142.57;98.12;115900.28;5019917;28;20107;-77
2023/06/28 00:27:23;;;;;;;25.58;8.98;;;;;;;-142.57;99.01;115900.28;5037401;28;20029;-79
2023/06/28 00:29:49;;;;;;;18.33;9.02;;;;;;;-142.57;99.81;115900.28;5037057;28;20038;-78
2023/06/28 00:32:14;;;;;;;17.45;9.57;;;;;;;-142.57;100.00;115900.28;5019279;28;20178;-78
2023/06/28 00:34:40;;;;;;;16.65;9.73;;;;;;;-142.57;100.00;115900.28;5037086;28;20084;-78
2023/06/28 00:37:05;;;;;;;22.40;9.88;;;;;;;-142.57;100.00;115900.28;5036917;28;20052;-78
2023/06/28 00:39:32;;;;;;;21.88;9.60;;;;;;;-142.57;100.00;115900.28;5036923;28;20041;-78
2023/06/28 00:41:57;;;;;;;20.17;9.55;;;;;;;-142.57;100.00;115900.28;5019167;28;20037;-78
2023/06/28 00:44:23;;;;;;;16.42;8.90;;;;;;;-142.57;100.00;115900.28;5037013;28;20380;-79
2023/06/28 00:46:49;;;;;;;17.98;9.90;;;;;;;-142.57;100.00;115900.28;5019367;28;20068;-79
2023/06/28 00:49:15;;;;;;;21.92;9.90;;;;;;;-142.57;100.00;115900.28;5036748;28;20040;-78
2023/06/28 00:51:41;;;;;;;16.80;9.82;;;;;;;-142.57;100.00;115900.28;5018470;28;20109;-78
2023/06/28 00:54:07;;;;;;;19.02;10.02;;;;;;;-142.57;100.00;115900.28;5037938;28;20086;-78
2023/06/28 00:56:34;;;;;;;17.95;10.13;;;;;;;-142.57;100.00;115900.28;5038385;28;20637;-78
2023/06/28 00:59:02;;;;;;;18.35;10.35;;;;;;;-142.57;100.00;115900.28;5020394;28;20037;-78
2023/06/28 01:01:28;;;;;;;22.30;10.93;;;;;;;-142.57;100.00;115900.28;5018591;28;20087;-77
2023/06/28 01:03:56;;;;;;;14.40;9.15;;;;;;;-142.57;100.00;115900.28;5037597;28;20030;-78
2023/06/28 01:06:26;;;;;;;18.30;8.93;;;;;;;-142.57;100.00;115900.28;5036962;28;20505;-77
2023/06/28 01:08:53;;;;;;;18.25;9.98;;;;;;;-142.57;100.00;115900.28;5018551;28;20033;-78
2023/06/28 01:11:19;;;;;;;18.63;8.93;;;;;;;-142.57;100.00;115900.28;5035378;28;20033;-78
2023/06/28 01:13:45;;;;;;;20.77;10.63;;;;;;;-142.57;100.00;115900.28;5016272;28;20033;-78
2023/06/28 01:16:11;;;;;;;24.13;9.77;;;;;;;-142.57;100.00;115900.28;5016578;28;20041;-78
2023/06/28 01:18:37;;;;;;;17.98;10.02;;;;;;;-142.57;100.00;115900.28;5033653;28;20507;-79
2023/06/28 01:21:07;;;;;;;16.50;9.30;;;;;;;-142.57;100.00;115900.28;5014232;28;20052;-79
2023/06/28 01:23:33;;;;;;;20.63;9.65;;;;;;;-142.57;100.00;115900.28;4996237;28;20078;-78
2023/06/28 01:26:03;;;;;;;16.98;9.07;;;;;;;-142.57;100.00;115900.28;5013563;28;20109;-81
2023/06/28 01:28:30;;;;;;;19.27;10.05;;;;;;;-142.57;100.00;115900.28;5013334;28;20061;-78
2023/06/28 01:30:57;;;;;;;20.45;9.63;;;;;;;-142.57;100.00;115900.28;5013224;28;20030;-79
2023/06/28 01:33:23;;;;;;;21.83;9.20;;;;;;;-142.57;100.00;115900.28;5013537;28;20034;-78
2023/06/28 01:35:49;;;;;;;17.27;8.70;;;;;;;-142.57;100.00;115900.28;5013604;28;20097;-78
2023/06/28 01:38:15;;;;;;;19.52;9.55;;;;;;;-142.57;100.00;115900.28;5013801;28;20049;-78
2023/06/28 01:40:42;;;;;;;14.40;8.90;;;;;;;-142.57;100.00;115900.28;5014123;28;20069;-78
2023/06/28 01:43:07;;;;;;;20.42;9.43;;;;;;;-142.57;100.00;115900.28;5013846;28;20036;-76
2023/06/28 01:45:37;;;;;;;16.50;8.55;;;;;;;-142.57;100.00;115900.28;5013960;28;20034;-77
2023/06/28 01:48:04;;;;;;;16.80;8.70;;;;;;;-142.57;100.00;115900.28;5013791;28;20044;-78
2023/06/28 01:50:30;;;;;;;22.27;9.90;;;;;;;-142.57;100.00;115900.28;5013426;28;20032;-77
2023/06/28 01:53:02;;;;;;;21.25;9.35;;;;;;;-142.57;100.00;115900.28;5013713;28;20056;-78
2023/06/28 01:55:29;;;;;;;17.60;9.53;;;;;;;-142.57;100.00;115900.28;5013352;28;20413;-79
2023/06/28 01:57:54;;;;;;;24.42;9.30;;;;;;;-142.57;100.00;115900.28;5013569;28;20499;-78
2023/06/28 02:00:21;;;;;;;24.33;9.70;;;;;;;-142.57;100.00;115900.28;5013148;28;20117;-77
2023/06/28 02:02:50;;;;;;;24.73;9.82;;;;;;;-142.57;100.00;115900.28;4995715;28;20041;-76
2023/06/28 02:05:16;;;;;;;16.95;9.55;;;;;;;-142.57;100.00;115900.28;4995801;28;20045;-78
2023/06/28 02:07:43;;;;;;;17.90;9.52;;;;;;;-142.57;100.00;115900.28;4996061;28;20034;-78
2023/06/28 02:10:11;;;;;;;20.75;9.77;;;;;;;-142.57;100.00;115900.28;4995506;28;20442;-78
2023/06/28 02:12:37;;;;;;;17.23;9.60;;;;;;;-142.57;100.00;115900.28;4996074;28;20140;-78
2023/06/28 02:15:04;;;;;;;16.25;9.18;;;;;;;-142.57;100.00;115900.28;5014590;28;20076;-78
2023/06/28 02:17:30;;;;;;;19.98;10.27;;;;;;;-142.57;100.00;115900.28;5017120;28;20030;-78
2023/06/28 02:19:56;;;;;;;18.35;9.98;;;;;;;-142.57;100.00;115900.28;5017348;28;20034;-79
2023/06/28 02:22:22;;;;;;;20.08;9.50;;;;;;;-142.57;100.00;115900.28;5016796;28;20050;-78
2023/06/28 02:24:48;;;;;;;19.30;10.32;;;;;;;-142.57;100.00;115900.28;5017004;28;20037;-79
2023/06/28 02:27:14;;;;;;;20.63;10.68;;;;;;;-142.57;100.00;115900.28;5017128;28;20041;-78
2023/06/28 02:29:40;;;;;;;16.73;10.25;;;;;;;-142.57;100.00;115900.28;5017038;28;20132;-77
2023/06/28 02:32:05;;;;;;;24.90;11.52;;;;;;;-142.57;100.00;115900.28;5016786;28;20531;-80
2023/06/28 02:34:31;;;;;;;17.38;10.00;;;;;;;-142.57;100.00;115900.28;5016939;28;20038;-79
2023/06/28 02:36:57;;;;;;;21.63;10.27;;;;;;;-142.57;100.00;115900.28;5016965;28;20107;-79
2023/06/28 02:39:22;;;;;;;15.07;9.52;;;;;;;-142.57;100.00;115900.28;5016982;28;20037;-80
2023/06/28 02:41:48;;;;;;;18.90;10.88;;;;;;;-142.57;100.00;115900.28;5017052;28;20029;-79
2023/06/28 02:44:14;;;;;;;17.98;11.00;;;;;;;-142.57;100.00;115900.28;5016830;28;20048;-78
2023/06/28 02:46:41;;;;;;;16.02;10.55;;;;;;;-142.57;100.00;115900.28;4999563;28;20072;-80
2023/06/28 02:49:08;;;;;;;15.30;10.20;;;;;;;-142.57;100.00;115900.28;4999294;28;20038;-78
2023/06/28 02:51:33;;;;;;;16.15;10.73;;;;;;;-142.57;100.00;115900.28;5017085;28;20057;-78
2023/06/28 02:54:02;;;;;;;17.85;10.65;;;;;;;-142.57;100.00;115900.28;4999217;28;20030;-79
2023/06/28 02:56:28;;;;;;;16.77;10.77;;;;;;;-142.57;100.00;115900.28;5000199;28;20049;-79
2023/06/28 02:59:14;;;;;;;19.52;10.45;;;;;;;-142.57;100.00;115900.28;5016408;28;20046;-79
2023/06/28 03:01:40;;;;;;;19.58;11.15;;;;;;;-142.57;100.00;115900.28;4998819;28;20042;-78
2023/06/28 03:04:07;;;;;;;18.65;11.25;;;;;;;-142.57;100.00;115900.28;5016786;28;20032;-81
2023/06/28 03:06:34;;;;;;;17.38;10.50;;;;;;;-142.57;100.00;115900.28;4998324;28;20034;-79
2023/06/28 03:09:00;;;;;;;23.40;11.05;;;;;;;-142.57;100.00;115900.28;5016484;28;20059;-80
2023/06/28 03:11:25;;;;;;;15.52;9.80;;;;;;;-142.57;100.00;115900.28;4998051;28;20033;-79
2023/06/28 03:13:51;;;;;;;16.90;11.00;;;;;;;-142.57;100.00;115900.28;4997890;28;20340;-78
2023/06/28 03:16:16;;;;;;;15.98;10.52;;;;;;;-142.57;100.00;115900.28;4998063;28;20088;-80
2023/06/28 03:18:42;;;;;;;16.80;9.25;;;;;;;-142.57;100.00;115900.28;4998291;28;20080;-80
2023/06/28 03:21:07;;;;;;;14.73;9.55;;;;;;;-142.57;100.00;115900.28;5015298;28;20113;-79
2023/06/28 03:23:34;;;;;;;15.00;9.18;;;;;;;-142.57;100.00;115900.28;4998095;28;20533;-80
2023/06/28 03:25:59;;;;;;;14.25;9.48;;;;;;;-142.57;100.00;115900.28;4997512;28;20120;-80
2023/06/28 03:28:25;;;;;;;16.83;9.90;;;;;;;-142.57;100.00;115900.28;5014489;28;20475;-79
2023/06/28 03:30:51;;;;;;;18.15;10.07;;;;;;;-142.57;100.00;115900.28;4997884;28;20026;-78
2023/06/28 03:33:16;;;;;;;17.27;9.82;;;;;;;-142.57;100.00;115900.28;5017767;28;20065;-79
2023/06/28 03:35:42;;;;;;;17.92;9.52;;;;;;;-142.57;100.00;115900.28;4998949;28;20026;-78
2023/06/28 03:38:08;;;;;;;23.25;10.32;;;;;;;-142.57;100.00;115900.28;4997790;28;20483;-77
2023/06/28 03:40:33;;;;;;;16.92;10.30;;;;;;;-142.57;100.00;115900.28;5015185;28;20038;-80
2023/06/28 03:42:59;;;;;;;19.90;10.43;;;;;;;-142.57;100.00;115900.28;5015396;28;20038;-81
2023/06/28 03:45:24;;;;;;;16.92;10.80;;;;;;;-142.57;100.00;115900.28;4997999;28;20415;-82
2023/06/28 03:47:50;;;;;;;14.23;8.93;;;;;;;-142.57;100.00;115900.28;4997246;28;20036;-79
2023/06/28 03:50:15;;;;;;;15.90;9.80;;;;;;;-142.57;100.00;115900.28;4997554;28;20034;-80
2023/06/28 03:52:41;;;;;;;13.65;9.35;;;;;;;-142.57;100.00;115900.28;5015471;28;20052;-82
2023/06/28 03:55:07;;;;;;;17.25;10.07;;;;;;;-142.57;100.00;115900.28;4997732;28;20129;-78
2023/06/28 03:57:33;;;;;;;13.48;9.30;;;;;;;-142.57;100.00;115900.28;5014971;28;20065;-77
2023/06/28 03:59:58;;;;;;;13.93;9.40;;;;;;;-142.57;100.00;115900.28;4997560;28;20026;-77
2023/06/28 04:02:27;;;;;;;13.85;10.20;;;;;;;-142.57;100.00;115900.28;5017836;28;20030;-77
2023/06/28 04:04:53;;;;;;;15.65;9.45;;;;;;;-142.57;100.00;115900.28;4999038;28;20037;-80
2023/06/28 04:07:23;;;;;;;14.75;9.07;;;;;;;-142.57;100.00;115900.28;5032313;28;20044;-80
2023/06/28 04:09:49;;;;;;;16.75;9.68;;;;;;;-142.57;100.00;115900.28;5029379;28;20076;-78
2023/06/28 04:12:15;;;;;;;15.02;9.68;;;;;;;-142.57;100.00;115900.28;5034590;28;20112;-82
2023/06/28 04:14:41;;;;;;;15.23;9.10;;;;;;;-142.57;100.00;115900.28;5033985;28;20034;-80
2023/06/28 04:17:07;;;;;;;12.50;8.95;;;;;;;-142.57;100.00;115900.28;5034477;28;20117;-78
2023/06/28 04:19:33;;;;;;;14.85;9.57;;;;;;;-142.57;100.00;115900.28;5017103;28;20037;-78
2023/06/28 04:21:59;;;;;;;16.98;9.07;;;;;;;-142.57;100.00;115900.28;5029895;28;20022;-78
2023/06/28 04:24:25;;;;;;;19.38;9.77;;;;;;;-142.57;100.00;115900.28;5014147;28;20025;-80
2023/06/28 04:26:50;;;;;;;16.60;9.75;;;;;;;-142.57;100.00;115900.28;5014417;28;20042;-78
2023/06/28 04:29:16;;;;;;;18.13;9.23;;;;;;;-142.57;100.00;115900.28;5014212;28;20066;-78
2023/06/28 04:31:41;;;;;;;11.43;8.07;;;;;;;-142.57;100.00;115900.28;5014081;28;20092;-82
2023/06/28 04:34:07;;;;;;;24.67;8.98;;;;;;;-142.57;100.00;115900.28;5014099;28;20392;-77
2023/06/28 04:36:32;;;;;;;14.82;9.07;;;;;;;-142.57;100.00;115900.28;5014286;28;20033;-78
2023/06/28 04:38:58;;;;;;;13.10;9.35;;;;;;;-142.57;100.00;115900.28;5013922;28;20033;-79
2023/06/28 04:41:26;;;;;;;13.85;9.52;;;;;;;-142.57;100.00;115900.28;5014297;28;20037;-78
2023/06/28 04:43:54;;;;;;;16.75;10.02;;;;;;;-142.57;100.00;115900.28;5014291;28;20045;-80
2023/06/28 04:46:22;;;;;;;17.60;9.32;;;;;;;-142.57;100.00;115900.28;5014345;28;20606;-79
2023/06/28 04:48:52;;;;;;;12.93;8.88;;;;;;;-142.57;100.00;115900.28;4997102;28;20037;-79
2023/06/28 04:51:19;;;;;;;10.15;7.72;;;;;;;-142.57;100.00;115900.28;5015970;28;20026;-80
2023/06/28 04:53:46;;;;;;;14.13;8.82;;;;;;;-142.57;100.00;115900.28;4999862;28;20030;-79
2023/06/28 04:56:12;;;;;;;13.77;7.60;;;;;;;-142.57;100.00;115900.28;4996554;28;20387;-80
2023/06/28 04:58:38;;;;;;;14.90;8.32;;;;;;;-142.57;100.00;115900.28;5013810;28;20034;-79
2023/06/28 05:01:07;;;;;;;16.42;7.93;;;;;;;-142.57;100.00;115900.28;5013876;28;20032;-79
2023/06/28 05:03:35;;;;;;;15.40;7.97;;;;;;;-142.57;100.00;115900.28;5013998;28;20032;-79
2023/06/28 05:06:07;;;;;;;12.43;7.28;;;;;;;-142.57;100.00;115900.28;5014180;28;20123;-81
2023/06/28 05:08:34;;;;;;;15.77;7.95;;;;;;;-142.57;100.00;115900.28;5013907;28;20431;-80
2023/06/28 05:11:00;;;;;;;15.18;8.07;;;;;;;-142.57;100.00;115900.28;5013724;28;20034;-87
2023/06/28 05:13:26;;;;;;;13.05;8.05;;;;;;;-142.57;100.00;115900.28;5015153;28;20104;-79
2023/06/28 05:15:51;;;;;;;21.08;7.90;;;;;;;-142.57;100.00;115900.28;5015234;28;20070;-78
2023/06/28 05:18:18;;;;;;;16.75;8.90;;;;;;;-142.57;100.00;115900.28;5013321;28;20037;-77
2023/06/28 05:20:43;;;;;;;15.65;8.70;;;;;;;-142.57;100.00;115900.28;5021228;28;20364;-77
2023/06/28 05:23:22;;;;;;;17.13;8.90;;;;;;;-142.57;100.00;115900.28;5033471;28;20025;-80
2023/06/28 05:25:48;;;;;;;16.10;9.38;;;;;;;-142.57;100.00;115900.28;5033564;28;20132;-80
2023/06/28 05:28:15;;;;;;;16.10;9.68;;;;;;;-142.57;100.00;115900.28;5033542;28;20127;-82
2023/06/28 05:30:42;;;;;;;16.35;9.82;;;;;;;-142.57;100.00;115900.28;5033783;28;20041;-82
2023/06/28 05:33:09;;;;;;;18.55;9.65;;;;;;;-142.57;100.00;115900.28;5033723;28;20121;-84
2023/06/28 05:35:35;;;;;;;21.55;10.50;;;;;;;-142.57;100.00;115900.28;5017857;28;20219;-82
2023/06/28 05:38:02;;;;;;;27.98;10.10;;;;;;;-142.57;100.00;115900.28;5047735;28;20033;-84
2023/06/28 05:40:29;;;;;;;24.65;10.88;;;;;;;-142.57;100.00;115900.28;5047574;28;20056;-83
2023/06/28 05:42:55;;;;;;;16.75;9.60;;;;;;;-142.57;100.00;115900.28;5043655;28;20037;-82
2023/06/28 05:45:25;;;;;;;14.65;9.60;;;;;;;-142.57;100.00;115900.28;5046334;28;20049;-84
2023/06/28 05:47:50;;;;;;;18.58;9.68;;;;;;;-142.57;100.00;115900.28;5046279;28;20117;-81
2023/06/28 05:50:17;;;;;;;18.00;8.20;;;;;;;-142.57;100.00;115900.28;5044897;28;20053;-82
2023/06/28 05:52:46;;;;;;;14.75;8.40;;;;;;;-142.57;100.00;115900.28;5010197;28;20041;-84
2023/06/28 05:55:12;;;;;;;14.75;8.25;;;;;;;-142.57;100.00;115900.28;5004216;28;20033;-83
2023/06/28 05:57:37;;;;;;;15.13;7.68;;;;;;;-142.57;100.00;115900.28;5039034;28;20040;-83
2023/06/28 06:00:04;;;;;;;16.05;8.23;;;;;;;-142.57;100.00;115900.28;5037613;28;20029;-81
2023/06/28 06:02:30;;;;;;;18.48;8.35;;;;;;;-142.57;100.00;115900.28;5037329;28;20052;-82
2023/06/28 06:04:57;;;;;;;16.85;8.30;;;;;;;-142.57;100.00;115900.28;5019199;28;20038;-82
2023/06/28 06:07:23;;;;;;;16.38;8.10;;;;;;;-142.57;100.00;115900.28;5018862;28;20053;-82
2023/06/28 06:09:49;;;;;;;15.70;6.95;;;;;;;-142.57;100.00;115900.28;5019633;28;20038;-85
2023/06/28 06:12:14;;;;;;;13.00;7.32;;;;;;;-142.57;100.00;115900.28;5023465;28;20041;-78
2023/06/28 06:14:40;;;;;;;13.38;6.82;;;;;;;-142.57;100.00;115900.28;5034072;28;20395;-81
2023/06/28 06:17:05;;;;;;;14.82;6.90;;;;;;;-142.57;100.00;115900.28;5014643;28;20082;-85
2023/06/28 06:19:31;;;;;;;14.82;7.65;;;;;;;-142.57;100.00;115900.28;5032971;28;20038;-86
2023/06/28 06:21:56;;;;;;;13.02;6.78;;;;;;;-142.57;100.00;115900.28;4999153;28;20045;-80
2023/06/28 06:24:22;;;;;;;11.95;7.75;;;;;;;-142.57;100.00;115900.28;5015438;28;20041;-80
2023/06/28 06:26:47;;;;;;;14.30;7.22;;;;;;;-142.57;100.00;115900.28;5015604;28;20030;-85
2023/06/28 06:29:13;;;;;;;17.30;7.30;;;;;;;-142.57;100.00;115900.28;5033248;28;20043;-83
2023/06/28 06:31:38;;;;;;;18.67;8.23;;;;;;;-142.57;100.00;115900.28;5033509;28;20136;-84
2023/06/28 06:34:04;;;;;;;18.27;7.38;;;;;;;-142.57;100.00;115900.28;5033035;28;20038;-81
2023/06/28 06:36:30;;;;;;;18.58;7.15;;;;;;;-142.57;100.00;115900.28;5033971;28;20032;-83
2023/06/28 06:38:57;;;;;;;16.50;7.50;;;;;;;-142.57;100.00;115900.28;5033127;28;20033;-81
2023/06/28 06:41:23;;;;;;;15.43;7.25;;;;;;;-142.57;100.00;115900.28;5033570;28;20037;-83
2023/06/28 06:43:49;;;;;;;11.02;7.63;;;;;;;-142.57;100.00;115900.28;5034393;28;20076;-87
2023/06/28 06:46:16;;;;;;;13.82;7.60;;;;;;;-142.57;100.00;115900.28;5034088;28;20116;-85
2023/06/28 06:48:41;;;;;;;13.65;6.85;;;;;;;-142.57;100.00;115900.28;5016213;28;20040;-84
2023/06/28 06:51:07;;;;;;;18.52;7.85;;;;;;;-142.57;100.00;115900.28;5016012;28;20033;-84
2023/06/28 06:53:33;;;;;;;11.65;6.80;;;;;;;-142.57;100.00;115900.28;5016067;28;20493;-84
2023/06/28 06:55:59;;;;;;;17.65;7.80;;;;;;;-142.57;100.00;115900.28;5015982;28;20487;-82
2023/06/28 06:58:25;;;;;;;16.27;7.80;;;;;;;-142.57;100.00;115900.28;5033812;28;20441;-84
2023/06/28 07:00:52;;;;;;;12.27;7.57;;;;;;;-142.57;100.00;115900.28;5034016;28;20513;-85
2023/06/28 07:03:20;;;;;;;15.65;8.48;;;;;;;-142.57;100.00;115900.28;5038009;28;20055;-83
2023/06/28 07:05:46;;;;;;;13.20;7.35;;;;;;;-142.57;100.00;115900.28;5050211;28;20116;-85
2023/06/28 07:08:11;;;;;;;15.23;7.45;;;;;;;-142.57;100.00;115900.28;5053635;28;20025;-84
2023/06/28 07:10:37;;;;;;;22.15;8.02;;;;;;;-142.57;100.00;115900.28;5050463;28;20057;-84
2023/06/28 07:13:03;;;;;;;16.65;7.55;;;;;;;-142.57;100.00;115900.28;5054301;28;20108;-85
2023/06/28 07:15:28;;;;;;;16.60;6.93;;;;;;;-142.57;100.00;115900.28;5048273;28;20524;-83
2023/06/28 07:17:54;;;;;;;11.63;6.55;;;;;;;-142.57;100.00;115900.28;5028220;28;20025;-82
2023/06/28 07:20:23;;;;;;;14.98;7.80;;;;;;;-142.57;100.00;115900.28;5031613;28;20049;-81
2023/06/28 07:22:48;;;;;;;14.30;7.55;;;;;;;-142.57;100.00;115900.28;5021723;28;20086;-82
2023/06/28 07:25:14;;;;;;;16.83;7.60;;;;;;;-142.57;100.00;115900.28;5034837;28;20033;-80
2023/06/28 07:27:40;;;;;;;17.65;8.32;;;;;;;-142.57;100.00;115900.28;5035250;28;20034;-83
2023/06/28 07:30:07;;;;;;;17.52;8.40;;;;;;;-142.57;100.00;115900.28;5018767;28;20472;-82
2023/06/28 07:32:33;;;;;;;18.25;7.10;;;;;;;-142.57;100.00;115900.28;5007278;28;20108;-83
2023/06/28 07:34:59;;;;;;;17.80;7.38;;;;;;;-142.57;100.00;115900.28;5012669;28;20058;-84
2023/06/28 07:37:25;;;;;;;19.85;7.50;;;;;;;-142.57;100.00;115900.28;4995922;28;20030;-85
2023/06/28 07:39:51;;;;;;;15.52;6.80;;;;;;;-142.57;100.00;115900.28;5009536;28;20436;-83
2023/06/28 07:42:18;;;;;;;16.48;8.57;;;;;;;-142.57;100.00;115900.28;5035359;28;20044;-86
2023/06/28 07:44:44;;;;;;;17.92;7.90;;;;;;;-142.57;100.00;115900.28;5022052;28;20025;-83
2023/06/28 07:47:09;;;;;;;14.27;8.00;;;;;;;-142.57;100.00;115900.28;5010271;28;20030;-82
2023/06/28 07:49:35;;;;;;;14.13;8.20;;;;;;;-142.57;100.00;115900.28;5016688;28;20038;-85
2023/06/28 07:52:01;;;;;;;14.00;7.68;;;;;;;-142.57;100.00;115900.28;5035164;28;20450;-86
2023/06/28 07:54:30;;;;;;;16.00;7.85;;;;;;;-142.57;100.00;115900.28;5020822;28;20029;-82
2023/06/28 07:56:55;;;;;;;16.95;8.75;;;;;;;-142.57;100.00;115900.28;5010994;28;20129;-85
2023/06/28 07:59:21;;;;;;;16.38;7.95;;;;;;;-142.57;100.00;115900.28;5026098;28;20033;-81
2023/06/28 08:01:48;;;;;;;18.25;8.30;;;;;;;-142.57;100.00;115900.28;5032428;28;20088;-85
2023/06/28 08:04:15;;;;;;;16.20;7.38;;;;;;;-142.57;100.00;115900.28;5018863;28;20046;-83
2023/06/28 08:06:42;;;;;;;24.42;7.97;;;;;;;-142.57;100.00;115900.28;5011738;28;20026;-83
2023/06/28 08:09:07;;;;;;;17.83;8.63;;;;;;;-142.57;100.00;115900.28;5024963;28;20053;-84
2023/06/28 08:11:33;;;;;;;18.55;8.35;;;;;;;-142.57;100.00;115900.28;5032170;28;20028;-86
2023/06/28 08:13:59;;;;;;;19.33;8.07;;;;;;;-142.57;100.00;115900.28;5001955;28;20060;-83
2023/06/28 08:16:24;;;;;;;17.42;8.65;;;;;;;-142.57;100.00;115900.28;5031106;28;20026;-84
2023/06/28 08:18:51;;;;;;;22.10;8.55;;;;;;;-142.57;100.00;115900.28;5022986;28;20126;-85
2023/06/28 08:21:16;;;;;;;24.23;8.52;;;;;;;-142.57;100.00;115900.28;5024723;28;20517;-82
2023/06/28 08:23:42;;;;;;;25.00;8.07;;;;;;;-142.57;100.00;115900.28;5029071;28;20033;-83
2023/06/28 08:26:08;;;;;;;22.42;8.18;;;;;;;-142.57;100.00;115900.28;5000452;28;20479;-85
2023/06/28 08:28:34;;;;;;;14.60;7.45;;;;;;;-142.57;100.00;115900.28;5032212;28;20033;-82
2023/06/28 08:30:59;;;;;;;20.05;8.00;;;;;;;-142.57;100.00;115900.28;5016047;28;20033;-84
2023/06/28 08:33:25;;;;;;;19.50;7.95;;;;;;;-142.57;100.00;115900.28;5027039;28;20030;-84
2023/06/28 08:35:51;;;;;;;15.20;7.85;;;;;;;-142.57;100.00;115900.28;5024821;28;20103;-84
2023/06/28 08:38:16;;;;;;;28.60;7.38;;;;;;;-142.57;100.00;115900.28;5030814;28;20029;-84
2023/06/28 08:40:42;;;;;;;26.88;8.00;;;;;;;-142.57;100.00;115900.28;5019312;28;20467;-85
2023/06/28 08:43:12;;;;;;;16.65;7.82;;;;;;;-142.57;100.00;115900.28;5024916;28;20510;-83
2023/06/28 08:45:38;;;;;;;24.50;8.02;;;;;;;-142.57;100.00;115900.28;5008837;28;20037;-85
2023/06/28 08:48:04;;;;;;;24.85;7.85;;;;;;;-142.57;100.00;115900.28;5015893;28;20053;-83
2023/06/28 08:50:30;;;;;;;19.13;7.28;;;;;;;-142.57;100.00;115900.28;5018496;28;20110;-84
2023/06/28 08:52:57;;;;;;;13.85;7.55;;;;;;;-142.57;100.00;115900.28;5047976;28;20033;-85
2023/06/28 08:55:23;;;;;;;18.13;7.57;;;;;;;-142.57;100.00;115900.28;5036947;28;20156;-84
2023/06/28 08:57:49;;;;;;;18.40;7.70;;;;;;;-142.57;100.00;115900.28;5033553;28;20033;-88
2023/06/28 09:00:15;;;;;;;19.17;7.82;;;;;;;-142.57;100.00;115900.28;5017283;28;20048;-87
2023/06/28 09:02:42;;;;;;;18.35;7.57;;;;;;;-142.57;100.00;115900.28;5022402;28;20033;-86
2023/06/28 09:05:09;;;;;;;24.30;6.72;;;;;;;-142.57;100.00;115900.28;5033154;28;20037;-86
2023/06/28 09:07:38;;;;;;;19.75;6.43;;;;;;;-142.57;100.00;115900.28;5031412;28;20094;-84
2023/06/28 09:10:06;;;;;;;15.10;7.00;;;;;;;-142.57;100.00;115900.28;5017371;28;20109;-86
2023/06/28 09:12:32;;;;;;;24.13;7.47;;;;;;;-142.57;100.00;115900.28;5024242;28;20044;-84
2023/06/28 09:14:58;;;;;;;16.23;7.20;;;;;;;-142.57;100.00;115900.28;5025058;28;20034;-83
2023/06/28 09:17:23;;;;;;;17.08;8.75;;;;;;;-142.57;100.00;115900.28;5018983;28;20105;-80
2023/06/28 09:19:49;;;;;;;18.10;9.52;;;;;;;-142.57;100.00;115900.28;5009750;28;20042;-83
2023/06/28 09:22:15;;;;;;;25.35;9.15;;;;;;;-142.57;100.00;115900.28;5017012;28;20582;-86
2023/06/28 09:24:41;;;;;;;15.48;8.60;;;;;;;-142.57;100.00;115900.28;5027099;28;20491;-81
2023/06/28 09:27:07;;;;;;;15.05;8.40;;;;;;;-142.57;100.00;115900.28;5020497;28;20103;-81
2023/06/28 09:29:34;;;;;;;21.70;8.82;;;;;;;-142.57;100.00;115900.28;5033323;28;20057;-81
2023/06/28 09:32:00;;;;;;;15.73;9.30;;;;;;;-142.57;100.00;115900.28;5033012;28;20033;-82
2023/06/28 09:34:26;;;;;;;14.25;7.90;;;;;;;-142.57;100.00;115900.28;5032801;28;20060;-81
2023/06/28 09:36:55;;;;;;;23.58;9.77;;;;;;;-142.57;100.00;115900.28;5032865;28;20025;-81
2023/06/28 09:39:22;;;;;;;13.98;8.10;;;;;;;-142.57;100.00;115900.28;5032696;28;20113;-83
2023/06/28 09:41:49;;;;;;;18.50;8.98;;;;;;;-142.57;100.00;115900.28;5033253;28;20406;-82
2023/06/28 09:44:16;;;;;;;24.20;8.52;;;;;;;-142.57;99.60;115900.28;5033486;28;20072;-82
2023/06/28 09:46:46;;;;;;;23.67;9.32;;;;;;;-142.57;96.22;115900.28;5032739;28;20037;-83
2023/06/28 09:49:24;;;;;;;18.80;8.55;;;;;;;-142.57;94.78;115900.28;5033125;28;20065;-82
2023/06/28 09:51:59;;;;;;;15.32;7.50;;;;;;;-142.57;95.51;115900.28;5033042;28;20133;-83
2023/06/28 09:54:37;;;;;;;19.25;9.55;;;;;;;-142.57;92.40;115900.28;5033598;28;20037;-83
2023/06/28 09:57:06;;;;;;;16.27;9.02;;;;;;;-142.57;94.01;115900.28;5028521;28;20053;-84
2023/06/28 09:59:33;;;;;;;14.73;8.00;;;;;;;-142.57;93.46;115900.28;5033195;28;20057;-84
2023/06/28 10:02:09;;;;;;;21.20;9.88;;;;;;;-142.57;92.88;115900.28;5033328;28;20388;-82
2023/06/28 10:04:37;;;;;;;23.33;9.85;;;;;;;-142.57;92.45;115900.28;5032541;28;20037;-85
2023/06/28 10:07:04;;;;;;;19.52;9.93;;;;;;;-142.57;92.26;115900.28;5033062;28;20065;-83
2023/06/28 10:09:33;;;;;;;21.25;10.23;;;;;;;-142.57;92.71;115900.28;5032890;28;20137;-84
2023/06/28 10:12:01;;;;;;;20.13;9.55;;;;;;;-142.57;95.02;115900.28;5032481;28;20053;-82
2023/06/28 10:14:33;;;;;;;20.13;10.05;;;;;;;-142.57;92.32;115900.28;5032549;28;20037;-81
2023/06/28 10:17:02;;;;;;;18.10;9.85;;;;;;;-142.57;91.46;115900.28;5024528;28;20060;-82
2023/06/28 10:19:28;;;;;;;22.75;9.27;;;;;;;-142.57;88.22;115900.28;5032611;28;20033;-83
2023/06/28 10:21:56;;;;;;;17.58;8.65;;;;;;;-142.57;84.99;115900.28;5028237;28;20069;-81
2023/06/28 10:24:22;;;;;;;22.92;8.73;;;;;;;-142.57;87.53;115900.28;5028019;28;20390;-81
2023/06/28 10:26:48;;;;;;;15.93;9.07;;;;;;;-142.57;85.96;115900.28;5014410;28;20033;-81
2023/06/28 10:29:14;;;;;;;21.48;9.68;;;;;;;-142.57;84.43;115900.28;5032454;28;20037;-80
2023/06/28 10:31:40;;;;;;;23.83;10.30;;;;;;;-142.57;82.84;115900.28;5032341;28;20030;-80
2023/06/28 10:34:07;;;;;;;17.13;9.88;;;;;;;-142.57;83.01;115900.28;4991196;28;20064;-82
2023/06/28 10:36:32;;;;;;;19.92;10.20;;;;;;;-142.57;82.90;115900.28;5023759;28;20406;-80
2023/06/28 10:38:58;;;;;;;16.27;10.55;;;;;;;-142.57;82.00;115900.28;5024992;28;20131;-82
2023/06/28 10:41:25;;;;;;;17.10;9.77;;;;;;;-142.57;81.79;115900.28;5019209;28;20061;-83
2023/06/28 10:44:03;;;;;;;18.02;9.40;;;;;;;-142.57;82.35;115900.28;5026957;28;20483;-83
2023/06/28 10:46:29;;;;;;;15.93;9.70;;;;;;;-142.57;79.66;115900.28;5017230;28;20041;-81
2023/06/28 10:48:56;;;;;;;20.75;10.00;;;;;;;-142.57;82.50;115900.28;5036503;28;20493;-80
2023/06/28 10:51:25;;;;;;;16.70;9.70;;;;;;;-142.57;80.93;115900.28;5018443;28;20486;-81